{
  "fields": [{"type":"int","id":"_id"},{"info":{"type_override":"text","notes":"Hora UTC de lectura de los datos (AAAA-MM-DD HH:mm:SS)(+1 para CET invierno, +2 para CET verano)","label":"date"},"type":"text","id":"TIMESTAMP"},{"info":{"type_override":"text","notes":"Record Number - identificador del registro","label":"int"},"type":"text","id":"RECORD"},{"info":{"type_override":"text","notes":"Velocidad media del viento en el periodo de 10 minutos leído","label":"float"},"type":"text","id":"VV_S_WVT"},{"info":{"type_override":"text","notes":"Dirección media del viento en el periodo de 10 minutos leído","label":"float"},"type":"text","id":"DV_D1_WVT"},{"info":{"type_override":"text","notes":"Velocidad máxima del viento en el periodo de 10 minutos leído","label":"float"},"type":"text","id":"VV10m3Seg_Max"},{"info":{"type_override":"text","notes":"Dirección de la racha máxima del viento en el periodo de 10 minutos leído","label":"text"},"type":"text","id":"DV10m3Seg_SMM"},{"info":{"type_override":"text","notes":"Presión atmosférica media en el periodo de 10 minutos leído","label":"text"},"type":"text","id":"PRE_Avg"},{"info":{"type_override":"text","notes":"Temperatura del aire media en el periodo de 10 minutos leído","label":"text"},"type":"text","id":"TEM_Avg"},{"info":{"type_override":"text","notes":"Humedad relativa del aire promedio en el periodo de 10 minutos leído","label":"text"},"type":"text","id":"HUM_Avg"},{"info":{"type_override":"text","notes":"Radiación solar media en el periodo de 10 minutos leído","label":"text"},"type":"text","id":"RAD_Avg"},{"info":{"type_override":"text","notes":"Precipitación acumulada en el periodo de 10 minutos leído","label":"text"},"type":"text","id":"PLU_Tot"}],
  "records": [
    [1069862,"2026-05-06 00:00:00","6115","1.375","12.78","3.5610000000000004","28.68","1010.8589999999999","15.9","70.96","NAN","0"],
    [1069863,"2026-05-06 00:10:00","6116","1.171","15.84","3.463","12.51","1010.8810000000001","15.72","71.72","NAN","0"],
    [1069864,"2026-05-06 00:20:00","6117","1.3259999999999998","10.48","3.201","358.0","1010.8839999999999","15.53","72.15","NAN","0"],
    [1069865,"2026-05-06 00:30:00","6118","1.723","6.069","3.136","38.36","1010.8430000000001","15.39","72.12","NAN","0"],
    [1069866,"2026-05-06 00:40:00","6119","1.173","358.7","2.254","356.9","1010.831","15.36","71.73","NAN","0"],
    [1069867,"2026-05-06 00:50:00","6120","0.6509999999999999","356.5","2.123","346.5","1010.813","15.43","71.13","NAN","0"],
    [1069868,"2026-05-06 01:00:00","6121","0.276","4.747","0.8170000000000001","40.28","1010.745","15.53","70.39","NAN","0"],
    [1069869,"2026-05-06 01:10:00","6122","0.836","37.89","1.535","4.2219999999999995","1010.622","15.58","69.78","NAN","0"],
    [1069870,"2026-05-06 01:20:00","6123","0.115","10.71","0.653","340.7","1010.5980000000001","15.56","69.03","NAN","0"],
    [1069871,"2026-05-06 01:30:00","6124","0.07400000000000001","302.8","0.6859999999999999","282.8","1010.605","15.35","69.49","NAN","0"],
    [1069872,"2026-05-06 01:40:00","6125","0.6809999999999999","60.81","1.633","26.44","1010.573","15.38","69.17","NAN","0"],
    [1069873,"2026-05-06 01:50:00","6126","0.579","40.34","1.5030000000000001","26.05","1010.75","15.09","69.92","NAN","0"],
    [1069874,"2026-05-06 02:00:00","6127","0.374","11.14","1.111","73.79","1010.712","14.87","71.23","NAN","0"],
    [1069875,"2026-05-06 02:10:00","6128","0.621","358.9","1.3719999999999999","5.587000000000001","1010.752","14.98","71.0","NAN","0"],
    [1069876,"2026-05-06 02:20:00","6129","0.267","284.0","0.9470000000000001","288.1","1010.79","15.29","69.63","NAN","0"],
    [1069877,"2026-05-06 02:30:00","6130","0.727","67.84","1.535","64.19","1010.8539999999999","15.17","70.33","NAN","0"],
    [1069878,"2026-05-06 02:40:00","6131","0.8009999999999999","56.16","1.535","56.61","1010.8489999999999","14.78","72.58","NAN","0"],
    [1069879,"2026-05-06 02:50:00","6132","0.25","44.9","0.6859999999999999","58.81","1010.852","14.77","72.37","NAN","0"],
    [1069880,"2026-05-06 03:00:00","6133","0.6990000000000001","41.49","1.339","30.96","1010.8439999999999","14.85","71.46","NAN","0"],
    [1069881,"2026-05-06 03:10:00","6134","0.345","16.34","1.143","38.66","1010.8489999999999","14.84","71.51","NAN","0"],
    [1069882,"2026-05-06 03:20:00","6135","0.239","19.02","0.7509999999999999","22.85","1010.837","14.81","71.67","NAN","0"],
    [1069883,"2026-05-06 03:30:00","6136","0.13699999999999998","295.6","0.8170000000000001","277.2","1010.847","14.85","71.68","NAN","0"],
    [1069884,"2026-05-06 03:40:00","6137","0.201","175.1","0.7190000000000001","127.8","1010.8539999999999","14.93","68.96","NAN","0"],
    [1069885,"2026-05-06 03:50:00","6138","0.615","42.15","1.274","359.9","1010.8539999999999","14.94","69.28","NAN","0"],
    [1069886,"2026-05-06 04:00:00","6139","0.233","287.1","1.078","287.9","1010.8889999999999","14.76","69.51","NAN","0"],
    [1069887,"2026-05-06 04:10:00","6140","1.105","242.4","2.7439999999999998","258.9","1010.9889999999999","14.9","64.06","NAN","0"],
    [1069888,"2026-05-06 04:20:00","6141","1.107","236.8","2.123","255.4","1010.949","14.97","62.43","NAN","0"],
    [1069889,"2026-05-06 04:30:00","6142","0.885","261.1","2.45","257.8","1010.9839999999999","14.91","61.72","NAN","0"],
    [1069890,"2026-05-06 04:40:00","6143","0.938","271.8","2.123","283.4","1011.079","15.07","60.41","NAN","0"],
    [1069891,"2026-05-06 04:50:00","6144","0.764","268.7","2.0909999999999997","303.8","1011.091","15.14","59.54","NAN","0"],
    [1069892,"2026-05-06 05:00:00","6145","0.691","340.0","1.535","7.825","1011.2330000000001","15.05","62.94","NAN","0"],
    [1069893,"2026-05-06 05:10:00","6146","0.544","26.84","1.633","14.12","1011.34","14.52","67.8","NAN","0"],
    [1069894,"2026-05-06 05:20:00","6147","0.6","44.98","1.47","26.42","1011.44","14.58","64.89","NAN","0"],
    [1069895,"2026-05-06 05:30:00","6148","0.8490000000000001","50.57","1.7309999999999999","48.28","1011.477","14.82","63.43","NAN","0"],
    [1069896,"2026-05-06 05:40:00","6149","0.7829999999999999","21.59","1.764","41.71","1011.57","14.62","63.57","NAN","0"],
    [1069897,"2026-05-06 05:50:00","6150","0.943","3.02","2.221","310.4","1011.6039999999999","14.88","60.05","NAN","0"],
    [1069898,"2026-05-06 06:00:00","6151","1.2930000000000001","316.3","4.1160000000000005","303.6","1011.6039999999999","15.69","54.63","NAN","0"],
    [1069899,"2026-05-06 06:10:00","6152","1.133","337.7","2.6460000000000004","299.6","1011.5989999999999","15.82","53.08","NAN","0"],
    [1069900,"2026-05-06 06:20:00","6153","0.977","347.7","2.7439999999999998","307.0","1011.653","16.02","52.2","NAN","0"],
    [1069901,"2026-05-06 06:30:00","6154","1.072","357.1","2.548","27.59","1011.672","16.01","52.38","NAN","0"],
    [1069902,"2026-05-06 06:40:00","6155","1.58","15.18","3.299","359.2","1011.7289999999999","16.07","52.5","NAN","0"],
    [1069903,"2026-05-06 06:50:00","6156","1.84","30.87","3.659","5.276","1011.883","15.76","53.64","NAN","0"],
    [1069904,"2026-05-06 07:00:00","6157","1.4480000000000002","33.87","3.495","66.32","1012.0139999999999","16.03","53.74","NAN","0"],
    [1069905,"2026-05-06 07:10:00","6158","1.705","26.14","3.92","34.25","1012.018","16.04","55.72","NAN","0"],
    [1069906,"2026-05-06 07:20:00","6159","1.921","45.33","3.855","73.94","1012.178","15.9","57.61","NAN","0"],
    [1069907,"2026-05-06 07:30:00","6160","1.545","41.73","3.463","53.68","1012.212","15.64","58.91","NAN","0"],
    [1069908,"2026-05-06 07:40:00","6161","1.151","111.2","2.0580000000000003","97.8","1012.362","15.89","57.79","NAN","0"],
    [1069909,"2026-05-06 07:50:00","6162","0.8540000000000001","45.47","1.9269999999999998","18.21","1012.459","16.53","54.53","NAN","0"],
    [1069910,"2026-05-06 08:00:00","6163","0.9620000000000001","127.7","2.254","93.7","1012.561","16.83","53.55","NAN","0"],
    [1069911,"2026-05-06 08:10:00","6164","0.97","132.9","2.45","111.5","1012.4760000000001","16.76","54.69","NAN","0"],
    [1069912,"2026-05-06 08:20:00","6165","1.347","109.4","2.7769999999999997","111.9","1012.461","17.2","52.97","NAN","0"],
    [1069913,"2026-05-06 08:30:00","6166","0.8059999999999999","130.8","1.96","93.6","1012.569","17.81","50.43","NAN","0"],
    [1069914,"2026-05-06 08:40:00","6167","1.7380000000000002","146.4","3.234","113.6","1012.698","17.44","51.19","NAN","0"],
    [1069915,"2026-05-06 08:50:00","6168","1.712","150.5","3.201","99.4","1012.698","17.28","51.6","NAN","0"],
    [1069916,"2026-05-06 09:00:00","6169","2.009","112.6","3.6910000000000003","104.5","1012.623","17.62","50.22","NAN","0"],
    [1069917,"2026-05-06 09:10:00","6170","1.008","114.0","3.005","150.1","1012.6439999999999","18.33","46.76","NAN","0"],
    [1069918,"2026-05-06 09:20:00","6171","1.3130000000000002","238.1","3.6910000000000003","273.5","1012.701","18.82","43.85","NAN","0"],
    [1069919,"2026-05-06 09:30:00","6172","2.492","247.5","5.227","257.1","1012.701","19.23","40.86","NAN","0"],
    [1069920,"2026-05-06 09:40:00","6173","1.607","267.4","3.7569999999999997","252.8","1012.7080000000001","19.36","40.94","NAN","0"],
    [1069921,"2026-05-06 09:50:00","6174","1.475","261.7","3.234","315.8","1012.703","19.52","39.38","NAN","0"],
    [1069922,"2026-05-06 10:00:00","6175","1.8519999999999999","296.5","3.9530000000000003","280.3","1012.5980000000001","19.46","39.68","NAN","0"],
    [1069923,"2026-05-06 10:10:00","6176","0.963","347.0","2.7110000000000003","19.41","1012.414","19.75","39.82","NAN","0"],
    [1069924,"2026-05-06 10:20:00","6177","1.077","262.5","2.45","276.6","1012.377","20.18","39.43","NAN","0"],
    [1069925,"2026-05-06 10:30:00","6178","1.483","157.9","3.985","112.1","1012.466","20.07","41.54","NAN","0"],
    [1069926,"2026-05-06 10:40:00","6179","2.387","188.0","4.573","180.9","1012.334","19.38","43.32","NAN","0"],
    [1069927,"2026-05-06 10:50:00","6180","3.134","182.8","4.998","176.8","1012.21","18.48","45.58","NAN","0"],
    [1069928,"2026-05-06 11:00:00","6181","2.747","185.8","4.312","181.4","1012.21","19.04","44.4","NAN","0"],
    [1069929,"2026-05-06 11:10:00","6182","3.134","173.2","5.684","181.1","1012.177","19.01","42.81","NAN","0"],
    [1069930,"2026-05-06 11:20:00","6183","3.492","180.9","5.847","177.4","1012.068","18.63","45.47","NAN","0"],
    [1069931,"2026-05-06 11:30:00","6184","3.364","180.2","5.521","181.0","1012.0010000000001","18.53","48.25","NAN","0"],
    [1069932,"2026-05-06 11:40:00","6185","3.2910000000000004","184.3","5.227","176.2","1011.9630000000001","18.47","48.36","NAN","0"],
    [1069933,"2026-05-06 11:50:00","6186","2.533","194.0","4.4430000000000005","187.3","1011.961","18.95","45.54","NAN","0"],
    [1069934,"2026-05-06 12:00:00","6187","3.1489999999999996","179.1","4.737","180.3","1011.943","18.8","46.26","NAN","0"],
    [1069935,"2026-05-06 12:10:00","6188","3.345","178.3","5.292000000000001","180.2","1011.955","18.59","48.05","NAN","0"],
    [1069936,"2026-05-06 12:20:00","6189","3.665","178.1","5.749","176.2","1011.95","18.87","45.49","NAN","0"],
    [1069937,"2026-05-06 12:30:00","6190","4.052","176.7","5.684","171.1","1011.909","18.12","49.26","NAN","0"],
    [1069938,"2026-05-06 12:40:00","6191","3.727","179.8","5.978","178.9","1011.961","18.2","48.61","NAN","0"],
    [1069939,"2026-05-06 12:50:00","6192","3.573","177.7","5.455","186.7","1011.873","18.25","49.08","NAN","0"],
    [1069940,"2026-05-06 13:00:00","6193","3.695","180.7","5.7170000000000005","179.1","1011.799","18.05","51.06","NAN","0"],
    [1069941,"2026-05-06 13:10:00","6194","3.5980000000000003","182.6","5.586","179.6","1011.758","18.16","51.03","NAN","0"],
    [1069942,"2026-05-06 13:20:00","6195","3.622","180.4","5.194","188.3","1011.717","18.05","52.18","NAN","0"],
    [1069943,"2026-05-06 13:30:00","6196","3.142","182.1","5.129","185.5","1011.6610000000001","18.5","52.14","NAN","0"],
    [1069944,"2026-05-06 13:40:00","6197","3.475","181.3","5.4879999999999995","184.1","1011.587","18.35","52.68","NAN","0"],
    [1069945,"2026-05-06 13:50:00","6198","3.497","179.5","4.998","190.2","1011.46","18.42","51.99","NAN","0"],
    [1069946,"2026-05-06 14:00:00","6199","3.734","177.7","5.2589999999999995","174.7","1011.418","18.24","53.15","NAN","0"],
    [1069947,"2026-05-06 14:10:00","6200","3.6860000000000004","180.6","5.7170000000000005","179.8","1011.336","18.4","54.03","NAN","0"],
    [1069948,"2026-05-06 14:20:00","6201","3.0439999999999996","180.6","4.769","173.4","1011.313","18.56","53.56","NAN","0"],
    [1069949,"2026-05-06 14:30:00","6202","3.659","182.5","5.684","183.4","1011.2310000000001","18.54","53.36","NAN","0"],
    [1069950,"2026-05-06 14:40:00","6203","3.648","182.7","5.2589999999999995","188.0","1011.194","18.36","53.41","NAN","0"],
    [1069951,"2026-05-06 14:50:00","6204","3.727","178.1","6.011","178.0","1011.082","18.33","54.58","NAN","0"],
    [1069952,"2026-05-06 15:00:00","6205","3.306","179.8","5.455","182.4","1011.079","18.48","53.59","NAN","0"],
    [1069953,"2026-05-06 15:10:00","6206","3.285","183.8","5.194","183.6","1010.977","18.52","52.37","NAN","0"],
    [1069954,"2026-05-06 15:20:00","6207","3.12","176.3","5.422999999999999","162.3","1010.962","18.63","52.69","NAN","0"],
    [1069955,"2026-05-06 15:30:00","6208","2.839","185.6","5.1610000000000005","181.3","1010.8969999999999","18.6","54.36","NAN","0"],
    [1069956,"2026-05-06 15:40:00","6209","2.569","177.7","4.573","177.8","1010.84","18.81","53.14","NAN","0"],
    [1069957,"2026-05-06 15:50:00","6210","2.681","186.5","4.279","177.5","1010.78","18.8","52.64","NAN","0"],
    [1069958,"2026-05-06 16:00:00","6211","2.8289999999999997","180.6","4.671","177.5","1010.7280000000001","18.69","54.33","NAN","0"],
    [1069959,"2026-05-06 16:10:00","6212","2.0669999999999997","195.0","3.855","202.6","1010.745","18.97","54.31","NAN","0"],
    [1069960,"2026-05-06 16:20:00","6213","2.363","188.6","4.312","178.6","1010.738","18.77","55.74","NAN","0"],
    [1069961,"2026-05-06 16:30:00","6214","1.965","188.7","3.495","181.9","1010.716","18.52","58.05","NAN","0"],
    [1069962,"2026-05-06 16:40:00","6215","2.303","186.7","4.018","174.6","1010.7189999999999","18.56","59.86","NAN","0"],
    [1069963,"2026-05-06 16:50:00","6216","2.298","176.6","3.593","144.5","1010.721","18.31","62.91","NAN","0"],
    [1069964,"2026-05-06 17:00:00","6217","1.952","177.9","3.365","178.1","1010.773","18.22","64.15","NAN","0"],
    [1069965,"2026-05-06 17:10:00","6218","2.186","185.1","4.018","168.6","1010.877","18.2","63.69","NAN","0"],
    [1069966,"2026-05-06 17:20:00","6219","1.979","173.6","3.201","171.8","1010.982","18.19","62.44","NAN","0"],
    [1069967,"2026-05-06 17:30:00","6220","1.906","182.8","3.201","174.4","1010.9680000000001","18.29","61.52","NAN","0"],
    [1069968,"2026-05-06 17:40:00","6221","2.208","178.3","3.365","187.7","1011.075","18.08","61.26","NAN","0"],
    [1069969,"2026-05-06 17:50:00","6222","2.059","180.1","3.365","180.6","1011.23","18.07","61.86","NAN","0"],
    [1069970,"2026-05-06 18:00:00","6223","2.244","182.0","3.495","174.0","1011.2280000000001","18.09","62.16","NAN","0"],
    [1069971,"2026-05-06 18:10:00","6224","2.023","180.2","3.6910000000000003","184.9","1011.317","17.96","62.23","NAN","0"],
    [1069972,"2026-05-06 18:20:00","6225","2.0909999999999997","181.6","3.332","178.0","1011.395","17.83","62.48","NAN","0"],
    [1069973,"2026-05-06 18:30:00","6226","1.611","169.4","2.8089999999999997","150.6","1011.4889999999999","17.87","62.64","NAN","0"],
    [1069974,"2026-05-06 18:40:00","6227","1.525","183.5","3.0380000000000003","179.7","1011.55","17.8","62.19","NAN","0"],
    [1069975,"2026-05-06 18:50:00","6228","1.037","176.9","1.7309999999999999","169.9","1011.73","17.81","61.7","NAN","0"],
    [1069976,"2026-05-06 19:00:00","6229","0.978","181.3","2.0909999999999997","183.8","1011.7819999999999","17.76","62.53","NAN","0"],
    [1069977,"2026-05-06 19:10:00","6230","1.325","180.7","2.483","183.5","1011.883","17.64","63.01","NAN","0"],
    [1069978,"2026-05-06 19:20:00","6231","0.8540000000000001","208.8","1.535","210.3","1012.018","17.77","62.01","NAN","0"],
    [1069979,"2026-05-06 19:30:00","6232","0.722","162.6","1.797","147.1","1012.0930000000001","17.74","62.92","NAN","0"],
    [1069980,"2026-05-06 19:40:00","6233","0.8959999999999999","174.3","1.699","150.6","1012.222","17.67","63.43","NAN","0"],
    [1069981,"2026-05-06 19:50:00","6234","0.78","169.5","1.307","191.4","1012.3960000000001","17.62","63.79","NAN","0"],
    [1069982,"2026-05-06 20:00:00","6235","0.7","206.8","1.4369999999999998","208.6","1012.535","17.7","64.46","NAN","0"],
    [1069983,"2026-05-06 20:10:00","6236","0.307","164.3","0.9470000000000001","178.1","1012.6569999999999","17.63","65.73","NAN","0"],
    [1069984,"2026-05-06 20:20:00","6237","0.316","229.3","1.013","247.7","1012.818","17.54","66.27","NAN","0"],
    [1069985,"2026-05-06 20:30:00","6238","0.35100000000000003","222.9","0.915","216.0","1013.074","17.53","67.03","NAN","0"],
    [1069986,"2026-05-06 20:40:00","6239","0.5579999999999999","198.1","1.078","203.0","1013.2310000000001","17.56","68.17","NAN","0"],
    [1069987,"2026-05-06 20:50:00","6240","0.27399999999999997","208.3","0.6859999999999999","204.7","1013.298","17.52","69.21","NAN","0"],
    [1069988,"2026-05-06 21:00:00","6241","0.384","195.8","0.653","193.7","1013.304","17.47","69.25","NAN","0"],
    [1069989,"2026-05-06 21:10:00","6242","0.091","209.7","0.6859999999999999","211.4","1013.41","17.47","70.04","NAN","0"],
    [1069990,"2026-05-06 21:20:00","6243","0.522","190.6","1.078","200.1","1013.435","17.45","71.0","NAN","0"],
    [1069991,"2026-05-06 21:30:00","6244","0.499","227.2","1.143","244.4","1013.375","17.54","71.12","NAN","0"],
    [1069992,"2026-05-06 21:40:00","6245","0.42100000000000004","212.0","1.2409999999999999","185.5","1013.334","17.61","70.34","NAN","0"],
    [1069993,"2026-05-06 21:50:00","6246","0.377","181.6","1.078","174.3","1013.437","17.55","71.03","NAN","0"],
    [1069994,"2026-05-06 22:00:00","6247","0.281","151.2","0.8490000000000001","156.9","1013.4060000000001","17.48","71.17","NAN","0"],
    [1069995,"2026-05-06 22:10:00","6248","0.154","192.7","0.7190000000000001","206.7","1013.426","17.46","70.85","NAN","0"],
    [1069996,"2026-05-06 22:20:00","6249","0.242","173.2","0.784","160.6","1013.432","17.56","71.09","NAN","0"],
    [1069997,"2026-05-06 22:30:00","6250","0.349","98.5","1.045","92.5","1013.3839999999999","17.45","70.75","NAN","0"],
    [1069998,"2026-05-06 22:40:00","6251","0.861","73.35","1.8619999999999999","58.19","1013.409","17.5","72.11","NAN","0"],
    [1069999,"2026-05-06 22:50:00","6252","1.197","48.99","2.7439999999999998","37.64","1013.441","17.36","71.9","NAN","0"],
    [1070000,"2026-05-06 23:00:00","6253","0.696","30.54","1.8619999999999999","357.5","1013.449","17.13","70.97","NAN","0"],
    [1070001,"2026-05-06 23:10:00","6254","1.099","47.22","2.548","16.86","1013.557","17.06","70.26","NAN","0"],
    [1070002,"2026-05-06 23:20:00","6255","0.8590000000000001","32.22","1.9269999999999998","14.0","1013.573","17.02","70.21","NAN","0"],
    [1070003,"2026-05-06 23:30:00","6256","0.961","29.63","2.385","358.5","1013.46","16.99","70.5","NAN","0"],
    [1070004,"2026-05-06 23:40:00","6257","1.768","41.63","3.6260000000000003","37.8","1013.6410000000001","16.96","71.47","NAN","0"],
    [1070005,"2026-05-06 23:50:00","6258","1.7180000000000002","46.99","3.463","27.53","1013.645","16.78","74.5","NAN","0"],
    [1070006,"2026-05-07 00:00:00","6259","2.114","55.46","4.606","69.62","1013.633","16.63","76.08","NAN","0"],
    [1070007,"2026-05-07 00:10:00","6260","2.144","57.42","4.671","69.49","1013.6339999999999","16.64","77.39","NAN","0"],
    [1070008,"2026-05-07 00:20:00","6261","1.709","60.74","3.887","40.99","1013.553","16.56","79.48","NAN","0"],
    [1070009,"2026-05-07 00:30:00","6262","2.059","50.77","4.475","39.6","1013.454","16.44","77.3","NAN","0"],
    [1070010,"2026-05-07 00:40:00","6263","1.4569999999999999","52.65","3.659","66.51","1013.435","16.45","75.1","NAN","0"],
    [1070011,"2026-05-07 00:50:00","6264","1.517","59.2","3.463","63.74","1013.437","16.46","75.52","NAN","0"],
    [1070012,"2026-05-07 01:00:00","6265","1.71","56.1","4.279","72.01","1013.37","16.45","77.23","NAN","0"],
    [1070013,"2026-05-07 01:10:00","6266","1.921","73.48","3.136","75.61","1013.329","16.45","80.6","NAN","0"],
    [1070014,"2026-05-07 01:20:00","6267","1.53","66.57","3.071","72.87","1013.318","16.35","82.2","NAN","0"],
    [1070015,"2026-05-07 01:30:00","6268","1.7930000000000001","43.11","3.136","31.66","1013.327","16.24","81.4","NAN","0"],
    [1070016,"2026-05-07 01:40:00","6269","1.55","42.49","2.875","56.71","1013.308","16.13","81.6","NAN","0"],
    [1070017,"2026-05-07 01:50:00","6270","1.01","34.64","2.0909999999999997","53.2","1013.252","16.04","80.8","NAN","0"],
    [1070018,"2026-05-07 02:00:00","6271","0.746","16.98","2.254","13.34","1013.18","15.98","79.64","NAN","0"],
    [1070019,"2026-05-07 02:10:00","6272","0.997","33.2","2.156","8.31","1013.09","15.88","79.06","NAN","0"],
    [1070020,"2026-05-07 02:20:00","6273","0.8220000000000001","23.78","1.829","59.12","1013.082","15.76","78.82","NAN","0"],
    [1070021,"2026-05-07 02:30:00","6274","0.653","35.75","1.568","55.52","1013.115","15.69","78.64","NAN","0"],
    [1070022,"2026-05-07 02:40:00","6275","0.496","30.99","1.764","350.8","1013.0989999999999","15.69","78.36","NAN","0"],
    [1070023,"2026-05-07 02:50:00","6276","0.628","10.93","1.4369999999999998","356.4","1013.207","15.71","77.38","NAN","0"],
    [1070024,"2026-05-07 03:00:00","6277","1.067","17.35","2.156","9.57","1013.221","15.76","76.22","NAN","0"],
    [1070025,"2026-05-07 03:10:00","6278","0.8540000000000001","42.09","1.764","45.79","1013.2130000000001","15.74","76.12","NAN","0"],
    [1070026,"2026-05-07 03:20:00","6279","0.621","14.81","1.274","348.8","1013.238","15.66","76.33","NAN","0"],
    [1070027,"2026-05-07 03:30:00","6280","0.7120000000000001","8.9","1.5030000000000001","19.58","1013.137","15.64","76.35","NAN","0"],
    [1070028,"2026-05-07 03:40:00","6281","0.77","14.12","2.221","18.6","1013.0880000000001","15.59","76.34","NAN","0"],
    [1070029,"2026-05-07 03:50:00","6282","0.7040000000000001","18.41","1.764","14.12","1013.0060000000001","15.55","76.52","NAN","0"],
    [1070030,"2026-05-07 04:00:00","6283","0.34700000000000003","26.5","0.9470000000000001","9.56","1013.077","15.52","76.6","NAN","0"],
    [1070031,"2026-05-07 04:10:00","6284","0.7020000000000001","35.19","1.5030000000000001","37.03","1013.092","15.45","76.95","NAN","0"],
    [1070032,"2026-05-07 04:20:00","6285","0.722","31.15","2.189","24.47","1013.097","15.38","77.39","NAN","0"],
    [1070033,"2026-05-07 04:30:00","6286","0.71","23.43","2.189","359.8","1013.091","15.32","77.53","NAN","0"],
    [1070034,"2026-05-07 04:40:00","6287","0.821","19.32","2.123","37.72","1013.095","15.32","77.49","NAN","0"],
    [1070035,"2026-05-07 04:50:00","6288","0.867","29.95","2.123","60.63","1013.0419999999999","15.21","78.1","NAN","0"],
    [1070036,"2026-05-07 05:00:00","6289","1.07","13.04","3.332","24.07","1013.0319999999999","15.21","78.19","NAN","0"],
    [1070037,"2026-05-07 05:10:00","6290","0.826","15.68","1.993","10.63","1013.127","15.15","78.41","NAN","0"],
    [1070038,"2026-05-07 05:20:00","6291","0.7390000000000001","40.79","1.47","53.47","1013.331","15.26","78.07","NAN","0"],
    [1070039,"2026-05-07 05:30:00","6292","0.8290000000000001","21.88","2.0580000000000003","0.079","1013.441","15.35","77.62","NAN","0"],
    [1070040,"2026-05-07 05:40:00","6293","0.925","30.61","2.123","24.98","1013.4","15.39","77.21","NAN","0"],
    [1070041,"2026-05-07 05:50:00","6294","1.094","4.505","2.417","7.984","1013.492","15.6","76.35","NAN","0"],
    [1070042,"2026-05-07 06:00:00","6295","0.75","20.12","2.254","8.97","1013.597","15.79","75.31","NAN","0"],
    [1070043,"2026-05-07 06:10:00","6296","0.7020000000000001","19.58","1.829","9.31","1013.699","15.97","74.51","NAN","0"],
    [1070044,"2026-05-07 06:20:00","6297","0.932","17.96","1.993","22.85","1013.7539999999999","16.18","73.48","NAN","0"],
    [1070045,"2026-05-07 06:30:00","6298","1.036","40.53","2.319","53.36","1013.79","16.2","73.73","NAN","0"],
    [1070046,"2026-05-07 06:40:00","6299","1.392","58.37","3.528","51.94","1013.97","16.62","73.33","NAN","0"],
    [1070047,"2026-05-07 06:50:00","6300","1.6569999999999998","44.96","2.94","34.09","1014.0239999999999","16.85","72.61","NAN","0"],
    [1070048,"2026-05-07 07:00:00","6301","1.375","42.63","2.483","30.07","1014.189","16.8","73.1","NAN","0"],
    [1070049,"2026-05-07 07:10:00","6302","1.3130000000000002","58.62","2.613","59.93","1014.2330000000001","16.86","74.0","NAN","0"],
    [1070050,"2026-05-07 07:20:00","6303","1.446","53.34","2.679","51.41","1014.258","16.81","74.32","NAN","0"],
    [1070051,"2026-05-07 07:30:00","6304","1.6119999999999999","70.42","3.463","57.3","1014.313","16.91","75.35","NAN","0"],
    [1070052,"2026-05-07 07:40:00","6305","1.73","83.6","3.0380000000000003","94.5","1014.2660000000001","16.82","76.61","NAN","0"],
    [1070053,"2026-05-07 07:50:00","6306","2.148","90.8","3.985","84.6","1014.3330000000001","16.72","77.45","NAN","0"],
    [1070054,"2026-05-07 08:00:00","6307","2.62","92.9","4.2139999999999995","67.39","1014.337","16.57","77.48","NAN","0"],
    [1070055,"2026-05-07 08:10:00","6308","2.438","91.3","4.2139999999999995","67.03","1014.2719999999999","17.2","72.45","NAN","0"],
    [1070056,"2026-05-07 08:20:00","6309","2.573","83.3","4.541","73.75","1014.262","17.39","72.25","NAN","0"],
    [1070057,"2026-05-07 08:30:00","6310","2.479","84.3","3.855","67.94","1014.2819999999999","17.28","72.32","NAN","0"],
    [1070058,"2026-05-07 08:40:00","6311","2.656","89.3","4.802","69.17","1014.293","17.45","70.54","NAN","0"],
    [1070059,"2026-05-07 08:50:00","6312","3.088","101.1","5.684","113.8","1014.211","17.87","67.81","NAN","0"],
    [1070060,"2026-05-07 09:00:00","6313","3.478","101.8","5.422999999999999","106.8","1014.2610000000001","17.81","67.74","NAN","0"],
    [1070061,"2026-05-07 09:10:00","6314","3.117","105.5","5.325","105.5","1014.4","17.97","67.13","NAN","0"],
    [1070062,"2026-05-07 09:20:00","6315","2.721","102.3","5.031000000000001","116.5","1014.4889999999999","18.18","66.33","NAN","0"],
    [1070063,"2026-05-07 09:30:00","6316","3.569","101.9","5.847","112.6","1014.534","17.84","66.0","NAN","0"],
    [1070064,"2026-05-07 09:40:00","6317","3.074","103.4","4.933","111.9","1014.5989999999999","17.94","64.82","NAN","0"],
    [1070065,"2026-05-07 09:50:00","6318","3.2889999999999997","109.5","5.292000000000001","117.6","1014.6260000000001","17.88","65.52","NAN","0"],
    [1070066,"2026-05-07 10:00:00","6319","2.775","104.3","5.619","113.1","1014.688","18.05","65.95","NAN","0"],
    [1070067,"2026-05-07 10:10:00","6320","2.912","108.9","4.638999999999999","115.5","1014.6210000000001","18.15","65.48","NAN","0"],
    [1070068,"2026-05-07 10:20:00","6321","2.6239999999999997","103.9","5.129","77.35","1014.566","18.24","65.52","NAN","0"],
    [1070069,"2026-05-07 10:30:00","6322","3.136","108.7","5.521","103.8","1014.461","18.16","65.4","NAN","0"],
    [1070070,"2026-05-07 10:40:00","6323","3.4560000000000004","105.2","6.042999999999999","114.7","1014.2919999999999","17.97","65.91","NAN","0"],
    [1070071,"2026-05-07 10:50:00","6324","3.2119999999999997","107.8","5.1610000000000005","110.1","1014.21","17.88","66.43","NAN","0"],
    [1070072,"2026-05-07 11:00:00","6325","3.095","103.2","6.1739999999999995","103.4","1014.198","18.02","66.6","NAN","0"],
    [1070073,"2026-05-07 11:10:00","6326","2.7119999999999997","99.2","4.508","118.7","1014.068","18.06","65.55","NAN","0"],
    [1070074,"2026-05-07 11:20:00","6327","2.81","108.6","5.1610000000000005","118.2","1013.9810000000001","18.09","65.59","NAN","0"],
    [1070075,"2026-05-07 11:30:00","6328","2.835","116.7","4.638999999999999","93.2","1014.048","17.87","65.48","NAN","0"],
    [1070076,"2026-05-07 11:40:00","6329","2.5469999999999997","125.4","4.933","130.1","1013.953","18.12","65.67","NAN","0"],
    [1070077,"2026-05-07 11:50:00","6330","2.5810000000000004","132.8","4.083","142.4","1014.046","18.01","65.46","NAN","0"],
    [1070078,"2026-05-07 12:00:00","6331","2.67","121.0","4.638999999999999","103.7","1013.9680000000001","18.06","66.41","NAN","0"],
    [1070079,"2026-05-07 12:10:00","6332","3.0269999999999997","125.0","5.815","109.4","1013.943","17.95","66.75","NAN","0"],
    [1070080,"2026-05-07 12:20:00","6333","2.3890000000000002","130.8","4.247","131.0","1013.831","18.22","65.77","NAN","0"],
    [1070081,"2026-05-07 12:30:00","6334","2.747","120.4","4.377","112.5","1013.7819999999999","18.04","65.78","NAN","0"],
    [1070082,"2026-05-07 12:40:00","6335","2.58","124.3","5.129","103.3","1013.7510000000001","18.31","65.1","NAN","0"],
    [1070083,"2026-05-07 12:50:00","6336","2.765","136.0","4.769","120.5","1013.692","18.13","63.01","NAN","0"],
    [1070084,"2026-05-07 13:00:00","6337","2.4330000000000003","118.9","4.4430000000000005","101.6","1013.495","18.18","62.98","NAN","0"],
    [1070085,"2026-05-07 13:10:00","6338","2.88","122.5","4.638999999999999","116.7","1013.373","17.96","62.89","NAN","0"],
    [1070086,"2026-05-07 13:20:00","6339","2.8789999999999996","115.3","5.031000000000001","113.2","1013.2710000000001","18.14","61.25","NAN","0"],
    [1070087,"2026-05-07 13:30:00","6340","2.635","118.4","5.2589999999999995","99.3","1013.194","18.1","61.25","NAN","0"],
    [1070088,"2026-05-07 13:40:00","6341","2.742","109.6","5.031000000000001","111.7","1013.201","17.99","61.95","NAN","0"],
    [1070089,"2026-05-07 13:50:00","6342","2.713","100.1","4.835","116.5","1013.046","18.09","62.79","NAN","0"],
    [1070090,"2026-05-07 14:00:00","6343","2.9160000000000004","105.7","4.802","112.9","1012.74","18.17","63.04","NAN","0"],
    [1070091,"2026-05-07 14:10:00","6344","3.056","107.6","5.2589999999999995","109.4","1012.72","17.71","64.94","NAN","0"],
    [1070092,"2026-05-07 14:20:00","6345","2.85","96.9","5.194","114.5","1012.591","18.16","64.08","NAN","0"],
    [1070093,"2026-05-07 14:30:00","6346","2.372","104.4","4.279","116.6","1012.546","18.18","64.16","NAN","0"],
    [1070094,"2026-05-07 14:40:00","6347","2.633","91.2","4.867","61.72","1012.471","18.18","64.35","NAN","0"],
    [1070095,"2026-05-07 14:50:00","6348","2.503","107.0","3.92","108.0","1012.6439999999999","18.04","65.08","NAN","0"],
    [1070096,"2026-05-07 15:00:00","6349","3.375","113.7","5.553","94.8","1012.461","17.74","66.64","NAN","0"],
    [1070097,"2026-05-07 15:10:00","6350","2.367","103.8","5.096","119.4","1012.462","17.92","67.02","NAN","0"],
    [1070098,"2026-05-07 15:20:00","6351","3.057","123.2","5.063","113.1","1012.454","17.66","68.22","NAN","0"],
    [1070099,"2026-05-07 15:30:00","6352","2.523","110.8","3.9530000000000003","85.3","1012.362","17.65","69.06","NAN","0"],
    [1070100,"2026-05-07 15:40:00","6353","2.273","98.2","4.312","93.6","1012.187","18.01","68.58","NAN","0"],
    [1070101,"2026-05-07 15:50:00","6354","3.036","102.6","4.998","106.9","1012.07","17.9","69.22","NAN","0"],
    [1070102,"2026-05-07 16:00:00","6355","2.575","98.2","4.312","107.2","1011.951","17.86","69.85","NAN","0"],
    [1070103,"2026-05-07 16:10:00","6356","3.1319999999999997","104.8","5.031000000000001","104.5","1011.919","17.72","70.24","NAN","0"],
    [1070104,"2026-05-07 16:20:00","6357","2.977","107.0","5.292000000000001","106.3","1011.825","17.58","71.0","NAN","0"],
    [1070105,"2026-05-07 16:30:00","6358","2.62","90.3","4.4430000000000005","85.4","1011.8489999999999","17.87","69.96","NAN","0"],
    [1070106,"2026-05-07 16:40:00","6359","2.175","98.9","3.92","106.8","1012.005","17.85","70.5","NAN","0"],
    [1070107,"2026-05-07 16:50:00","6360","2.5810000000000004","93.7","4.508","118.0","1012.0830000000001","17.59","71.77","NAN","0"],
    [1070108,"2026-05-07 17:00:00","6361","2.5989999999999998","90.9","5.325","88.2","1012.1039999999999","17.71","71.04","NAN","0"],
    [1070109,"2026-05-07 17:10:00","6362","2.555","102.8","4.606","101.6","1012.211","17.69","71.51","NAN","0"],
    [1070110,"2026-05-07 17:20:00","6363","1.95","101.2","3.855","91.0","1012.334","17.62","72.1","NAN","0"],
    [1070111,"2026-05-07 17:30:00","6364","2.39","110.4","4.41","117.8","1012.31","17.55","72.55","NAN","0"],
    [1070112,"2026-05-07 17:40:00","6365","2.275","90.3","4.181","103.1","1012.26","17.36","72.88","NAN","0"],
    [1070113,"2026-05-07 17:50:00","6366","2.15","79.26","3.6260000000000003","103.1","1012.2339999999999","17.52","72.4","NAN","0"],
    [1070114,"2026-05-07 18:00:00","6367","1.646","73.85","3.463","58.38","1012.295","17.57","72.37","NAN","0"],
    [1070115,"2026-05-07 18:10:00","6368","2.065","85.0","4.018","78.44","1012.387","17.6","72.41","NAN","0"],
    [1070116,"2026-05-07 18:20:00","6369","2.1430000000000002","85.1","3.7569999999999997","75.39","1012.4110000000001","17.46","72.65","NAN","0"],
    [1070117,"2026-05-07 18:30:00","6370","1.671","98.8","2.907","97.9","1012.523","17.37","74.06","NAN","0"],
    [1070118,"2026-05-07 18:40:00","6371","2.12","87.4","3.365","92.1","1012.5989999999999","17.4","74.23","NAN","0"],
    [1070119,"2026-05-07 18:50:00","6372","2.017","83.6","3.495","76.39","1012.763","17.29","74.75","NAN","0"],
    [1070120,"2026-05-07 19:00:00","6373","1.538","66.83","2.8089999999999997","68.14","1012.778","17.36","74.63","NAN","0"],
    [1070121,"2026-05-07 19:10:00","6374","1.466","81.8","3.071","76.18","1012.823","17.31","74.68","NAN","0"],
    [1070122,"2026-05-07 19:20:00","6375","1.47","60.5","2.907","63.93","1013.007","17.26","74.64","NAN","0"],
    [1070123,"2026-05-07 19:30:00","6376","1.588","69.46","2.907","69.52","1013.159","17.22","75.27","NAN","0"],
    [1070124,"2026-05-07 19:40:00","6377","1.6340000000000001","81.2","2.7439999999999998","76.13","1013.2739999999999","17.24","75.04","NAN","0"],
    [1070125,"2026-05-07 19:50:00","6378","1.217","73.52","2.385","90.9","1013.342","17.21","75.09","NAN","0"],
    [1070126,"2026-05-07 20:00:00","6379","1.42","60.76","2.6460000000000004","54.14","1013.413","17.19","74.91","NAN","0"],
    [1070127,"2026-05-07 20:10:00","6380","1.526","46.7","2.7439999999999998","36.38","1013.573","17.1","74.07","NAN","0"],
    [1070128,"2026-05-07 20:20:00","6381","1.67","72.99","2.7769999999999997","86.1","1013.7330000000001","17.11","75.26","NAN","0"],
    [1070129,"2026-05-07 20:30:00","6382","1.338","75.97","2.6460000000000004","96.0","1013.883","17.2","75.59","NAN","0"],
    [1070130,"2026-05-07 20:40:00","6383","1.8780000000000001","95.7","3.267","106.3","1014.029","17.19","75.93","NAN","0"],
    [1070131,"2026-05-07 20:50:00","6384","1.5919999999999999","85.8","2.8089999999999997","75.49","1014.039","17.16","76.11","NAN","0"],
    [1070132,"2026-05-07 21:00:00","6385","1.4880000000000002","78.77","2.842","103.0","1014.0060000000001","17.18","75.76","NAN","0"],
    [1070133,"2026-05-07 21:10:00","6386","1.2009999999999998","85.8","2.287","91.3","1014.023","17.14","76.12","NAN","0"],
    [1070134,"2026-05-07 21:20:00","6387","1.485","87.5","2.515","85.0","1014.035","17.09","76.89","NAN","0"],
    [1070135,"2026-05-07 21:30:00","6388","1.454","89.8","2.319","72.03","1014.0269999999999","17.04","76.74","NAN","0"],
    [1070136,"2026-05-07 21:40:00","6389","1.4069999999999998","77.51","2.5810000000000004","68.96","1014.04","16.99","76.83","NAN","0"],
    [1070137,"2026-05-07 21:50:00","6390","1.034","83.5","1.993","78.07","1014.043","17.02","76.65","NAN","0"],
    [1070138,"2026-05-07 22:00:00","6391","1.0090000000000001","60.07","1.96","28.01","1013.993","17.05","76.83","NAN","0"],
    [1070139,"2026-05-07 22:10:00","6392","0.93","56.41","1.764","77.75","1013.922","17.0","76.74","NAN","0"],
    [1070140,"2026-05-07 22:20:00","6393","1.067","45.58","1.9269999999999998","37.57","1013.9010000000001","16.97","76.77","NAN","0"],
    [1070141,"2026-05-07 22:30:00","6394","0.645","48.2","1.339","56.3","1013.785","16.94","76.45","NAN","0"],
    [1070142,"2026-05-07 22:40:00","6395","0.727","46.93","1.601","29.52","1013.806","16.95","76.82","NAN","0"],
    [1070143,"2026-05-07 22:50:00","6396","0.8","60.46","1.3719999999999999","64.74","1013.7660000000001","16.98","76.49","NAN","0"],
    [1070144,"2026-05-07 23:00:00","6397","0.909","61.25","1.666","67.22","1013.669","16.99","76.45","NAN","0"],
    [1070145,"2026-05-07 23:10:00","6398","0.742","49.47","2.0580000000000003","66.98","1013.566","16.98","76.17","NAN","0"],
    [1070146,"2026-05-07 23:20:00","6399","0.852","67.31","2.0580000000000003","66.98","1013.513","16.95","75.8","NAN","0"],
    [1070147,"2026-05-07 23:30:00","6400","0.555","66.09","1.078","52.9","1013.433","16.87","75.88","NAN","0"],
    [1070148,"2026-05-07 23:40:00","6401","0.48100000000000004","63.64","0.8490000000000001","78.65","1013.382","16.83","75.75","NAN","0"],
    [1070149,"2026-05-07 23:50:00","6402","0.677","35.48","1.078","38.13","1013.373","16.81","75.57","NAN","0"],
    [1070150,"2026-05-08 00:00:00","6403","0.5870000000000001","56.73","1.143","51.8","1013.325","16.82","75.46","NAN","0"],
    [1070151,"2026-05-08 00:10:00","6404","0.867","50.84","1.535","58.89","1013.2439999999999","16.82","75.05","NAN","0"],
    [1070152,"2026-05-08 00:20:00","6405","0.561","67.52","1.339","63.65","1013.186","16.8","74.7","NAN","0"],
    [1070153,"2026-05-08 00:30:00","6406","0.888","50.31","1.535","60.82","1013.133","16.77","74.26","NAN","0"],
    [1070154,"2026-05-08 00:40:00","6407","0.8540000000000001","44.82","1.699","17.71","1013.0369999999999","16.8","72.9","NAN","0"],
    [1070155,"2026-05-08 00:50:00","6408","0.665","46.33","1.339","40.25","1012.937","16.82","72.22","NAN","0"],
    [1070156,"2026-05-08 01:00:00","6409","0.8","48.55","1.339","22.13","1012.909","16.76","72.36","NAN","0"],
    [1070157,"2026-05-08 01:10:00","6410","0.893","52.56","1.3719999999999999","54.43","1012.791","16.72","72.78","NAN","0"],
    [1070158,"2026-05-08 01:20:00","6411","0.539","54.43","1.3719999999999999","50.34","1012.684","16.66","72.72","NAN","0"],
    [1070159,"2026-05-08 01:30:00","6412","0.081","300.3","0.7509999999999999","3.284","1012.6189999999999","16.8","71.73","NAN","0"],
    [1070160,"2026-05-08 01:40:00","6413","0.24600000000000002","169.4","0.6859999999999999","160.9","1012.546","16.91","71.78","NAN","0"],
    [1070161,"2026-05-08 01:50:00","6414","0.133","137.7","0.621","147.6","1012.533","16.78","73.77","NAN","0"],
    [1070162,"2026-05-08 02:00:00","6415","0.09300000000000001","82.0","0.392","148.2","1012.427","16.73","73.53","NAN","0"],
    [1070163,"2026-05-08 02:10:00","6416","0.38299999999999995","32.29","0.7509999999999999","53.06","1012.317","16.69","73.58","NAN","0"],
    [1070164,"2026-05-08 02:20:00","6417","0.768","46.81","1.405","34.29","1012.299","16.54","73.93","NAN","0"],
    [1070165,"2026-05-08 02:30:00","6418","0.23600000000000002","68.41","0.7190000000000001","81.0","1012.308","16.39","74.26","NAN","0"],
    [1070166,"2026-05-08 02:40:00","6419","0.188","69.93","0.8490000000000001","71.25","1012.25","16.36","74.07","NAN","0"],
    [1070167,"2026-05-08 02:50:00","6420","0.152","59.14","0.7190000000000001","56.09","1012.1489999999999","16.21","74.0","NAN","0"],
    [1070168,"2026-05-08 03:00:00","6421","0.35200000000000004","51.27","0.882","59.71","1012.102","16.19","73.58","NAN","0"],
    [1070169,"2026-05-08 03:10:00","6422","0.002","25.31","0.196","25.01","1012.096","16.0","74.48","NAN","0"],
    [1070170,"2026-05-08 03:20:00","6423","0.092","30.51","0.915","24.56","1012.085","15.86","75.68","NAN","0"],
    [1070171,"2026-05-08 03:30:00","6424","0.5660000000000001","44.87","1.209","57.41","1012.0139999999999","15.88","75.93","NAN","0"],
    [1070172,"2026-05-08 03:40:00","6425","0.516","36.56","1.078","354.4","1012.008","15.89","75.47","NAN","0"],
    [1070173,"2026-05-08 03:50:00","6426","0.753","22.2","1.7309999999999999","14.26","1011.9760000000001","15.81","76.07","NAN","0"],
    [1070174,"2026-05-08 04:00:00","6427","0.588","41.12","0.9470000000000001","53.48","1012.096","15.63","75.95","NAN","0"],
    [1070175,"2026-05-08 04:10:00","6428","0.48200000000000004","6.975","0.98","354.3","1012.1","15.56","75.72","NAN","0"],
    [1070176,"2026-05-08 04:20:00","6429","1.124","1.629","1.895","8.43","1012.1","15.67","73.79","NAN","0"],
    [1070177,"2026-05-08 04:30:00","6430","0.585","15.76","1.143","355.5","1012.125","15.53","74.38","NAN","0"],
    [1070178,"2026-05-08 04:40:00","6431","0.32799999999999996","46.18","0.7190000000000001","54.22","1012.294","15.36","75.13","NAN","0"],
    [1070179,"2026-05-08 04:50:00","6432","0.376","38.1","0.653","16.18","1012.34","15.21","75.87","NAN","0"],
    [1070180,"2026-05-08 05:00:00","6433","0.486","38.44","0.882","39.35","1012.345","15.4","74.91","NAN","0"],
    [1070181,"2026-05-08 05:10:00","6434","0.5329999999999999","47.98","0.915","26.89","1012.4989999999999","15.51","73.99","NAN","0"],
    [1070182,"2026-05-08 05:20:00","6435","0.631","23.21","1.143","36.84","1012.597","15.7","72.97","NAN","0"],
    [1070183,"2026-05-08 05:30:00","6436","0.434","43.6","0.915","36.0","1012.7330000000001","15.71","72.87","NAN","0"],
    [1070184,"2026-05-08 05:40:00","6437","0.721","11.61","1.3719999999999999","12.26","1012.824","15.82","71.58","NAN","0"],
    [1070185,"2026-05-08 05:50:00","6438","0.904","24.96","1.764","32.68","1012.822","16.03","70.63","NAN","0"],
    [1070186,"2026-05-08 06:00:00","6439","0.7559999999999999","29.93","1.535","38.98","1012.82","16.02","70.67","NAN","0"],
    [1070187,"2026-05-08 06:10:00","6440","0.9109999999999999","44.56","1.633","26.66","1012.801","16.2","69.26","NAN","0"],
    [1070188,"2026-05-08 06:20:00","6441","1.0979999999999999","23.63","2.287","8.04","1012.828","16.15","67.99","NAN","0"],
    [1070189,"2026-05-08 06:30:00","6442","0.902","33.13","2.254","35.98","1012.85","16.34","67.37","NAN","0"],
    [1070190,"2026-05-08 06:40:00","6443","1.3319999999999999","42.95","2.515","60.33","1012.9169999999999","16.33","66.77","NAN","0"],
    [1070191,"2026-05-08 06:50:00","6444","0.716","24.05","1.895","17.29","1012.988","16.49","65.94","NAN","0"],
    [1070192,"2026-05-08 07:00:00","6445","1.2770000000000001","45.53","2.352","55.49","1013.055","17.01","63.71","NAN","0"],
    [1070193,"2026-05-08 07:10:00","6446","0.7659999999999999","37.14","1.9269999999999998","65.99","1013.2289999999999","17.43","62.37","NAN","0"],
    [1070194,"2026-05-08 07:20:00","6447","0.9179999999999999","58.22","1.7309999999999999","52.66","1013.316","17.85","62.31","NAN","0"],
    [1070195,"2026-05-08 07:30:00","6448","0.963","59.47","2.0909999999999997","59.56","1013.454","18.3","62.55","NAN","0"],
    [1070196,"2026-05-08 07:40:00","6449","1.349","71.91","2.7439999999999998","77.77","1013.465","18.44","61.44","NAN","0"],
    [1070197,"2026-05-08 07:50:00","6450","1.307","47.93","2.8089999999999997","59.5","1013.553","18.49","59.28","NAN","0"],
    [1070198,"2026-05-08 08:00:00","6451","1.465","72.63","2.613","33.11","1013.665","18.49","60.22","NAN","0"],
    [1070199,"2026-05-08 08:10:00","6452","1.483","90.6","2.7769999999999997","102.5","1013.7539999999999","18.38","66.11","NAN","0"],
    [1070200,"2026-05-08 08:20:00","6453","1.355","89.1","2.5810000000000004","114.6","1013.934","18.23","68.02","NAN","0"],
    [1070201,"2026-05-08 08:30:00","6454","1.3780000000000001","107.3","3.136","112.4","1014.0880000000001","18.21","70.04","NAN","0"],
    [1070202,"2026-05-08 08:40:00","6455","1.4669999999999999","120.6","2.515","118.3","1014.2","17.9","71.98","NAN","0"],
    [1070203,"2026-05-08 08:50:00","6456","1.215","98.7","2.254","108.1","1014.24","18.11","71.63","NAN","0"],
    [1070204,"2026-05-08 09:00:00","6457","1.443","107.5","2.7439999999999998","112.8","1014.3939999999999","18.3","71.77","NAN","0"],
    [1070205,"2026-05-08 09:10:00","6458","1.2819999999999998","128.8","2.221","160.6","1014.562","18.6","70.57","NAN","0"],
    [1070206,"2026-05-08 09:20:00","6459","1.565","132.4","2.5810000000000004","104.3","1014.696","18.27","71.87","NAN","0"],
    [1070207,"2026-05-08 09:30:00","6460","1.209","107.4","2.156","89.2","1014.688","18.71","70.95","NAN","0"],
    [1070208,"2026-05-08 09:40:00","6461","1.6119999999999999","106.7","3.43","114.6","1014.701","18.87","69.41","NAN","0"],
    [1070209,"2026-05-08 09:50:00","6462","1.788","103.4","3.659","107.5","1014.701","18.88","69.65","NAN","0"],
    [1070210,"2026-05-08 10:00:00","6463","1.7819999999999998","106.7","2.94","95.4","1014.8430000000001","18.6","71.26","NAN","0"],
    [1070211,"2026-05-08 10:10:00","6464","1.81","98.9","3.397","113.0","1014.81","18.56","72.39","NAN","0"],
    [1070212,"2026-05-08 10:20:00","6465","1.996","97.6","3.397","117.0","1014.6310000000001","18.64","71.8","NAN","0"],
    [1070213,"2026-05-08 10:30:00","6466","1.931","108.2","3.397","95.6","1014.591","18.74","71.37","NAN","0"],
    [1070214,"2026-05-08 10:40:00","6467","1.9969999999999999","107.6","3.528","109.3","1014.439","18.73","71.48","NAN","0"],
    [1070215,"2026-05-08 10:50:00","6468","1.899","115.0","3.332","117.1","1014.409","18.65","71.41","NAN","0"],
    [1070216,"2026-05-08 11:00:00","6469","1.5230000000000001","111.9","2.875","119.5","1014.3919999999999","18.55","71.49","NAN","0"],
    [1070217,"2026-05-08 11:10:00","6470","1.295","143.9","2.45","143.1","1014.441","18.79","66.6","NAN","0"],
    [1070218,"2026-05-08 11:20:00","6471","1.868","137.3","3.201","174.0","1014.3919999999999","18.55","66.38","NAN","0"],
    [1070219,"2026-05-08 11:30:00","6472","1.73","154.8","3.201","136.2","1014.563","18.83","64.8","NAN","0"]
]}
